NCAR-RAP Real-Time Weather Data

Output produced by METARs form (22 January 2018  03:52 UTC)
found at http://weather.rap.ucar.edu/surface/
 
Conditions at: KTPA observed 22 January 2018  02:53 UTC
Temperature: 21.1°C (70°F)
Dewpoint: 15.0°C (59°F) [RH = 68%]
Pressure (altimeter): 30.16 inches Hg (1021.4 mb)
[Sea-level pressure: 1021.3 mb]
Winds: from the E (100 degrees) at 7 MPH (6 knots; 3.1 m/s)
Visibility: 10 or more miles (16+ km)
Ceiling: at least 12,000 feet AGL
Clouds: sky clear below 12,000 feet AGL
Present Weather: no significant weather observed at this time
KTPA 220253Z 10006KT 10SM CLR 21/15 A3016 RMK AO2 SLP213 T02110150 53006

Conditions at: KTPA observed 22 January 2018  01:53 UTC
Temperature: 22.2°C (72°F)
Dewpoint: 13.9°C (57°F) [RH = 59%]
Pressure (altimeter): 30.15 inches Hg (1021.1 mb)
[Sea-level pressure: 1021.0 mb]
Winds: variable direction winds at 7 MPH (6 knots; 3.1 m/s)
Visibility: 10 or more miles (16+ km)
Ceiling: at least 12,000 feet AGL
Clouds: sky clear below 12,000 feet AGL
Present Weather: no significant weather observed at this time
KTPA 220153Z VRB06KT 10SM CLR 22/14 A3015 RMK AO2 SLP210 T02220139

Conditions at: KTPA observed 22 January 2018  00:53 UTC
Temperature: 22.2°C (72°F)
Dewpoint: 12.8°C (55°F) [RH = 55%]
Pressure (altimeter): 30.15 inches Hg (1021.1 mb)
[Sea-level pressure: 1020.8 mb]
Winds: calm
Visibility: 10 or more miles (16+ km)
Ceiling: at least 12,000 feet AGL
Clouds: sky clear below 12,000 feet AGL
Present Weather: no significant weather observed at this time
KTPA 220053Z 00000KT 10SM CLR 22/13 A3015 RMK AO2 SLP208 T02220128

Conditions at: KTPA observed 21 January 2018  23:53 UTC
Temperature: 23.3°C (74°F)
Dewpoint: 12.8°C (55°F) [RH = 52%]
Pressure (altimeter): 30.14 inches Hg (1020.7 mb)
[Sea-level pressure: 1020.6 mb]
Winds: from the NE (50 degrees) at 3 MPH (3 knots; 1.6 m/s)
Visibility: 10 or more miles (16+ km)
Ceiling: at least 12,000 feet AGL
Clouds: few clouds at 5000 feet AGL
Present Weather: no significant weather observed at this time
KTPA 212353Z 05003KT 10SM FEW050 23/13 A3014 RMK AO2 SLP206 T02330128 10272 20233 53004

Conditions at: KTPA observed 21 January 2018  22:53 UTC
Temperature: 25.0°C (77°F)
Dewpoint: 12.2°C (54°F) [RH = 45%]
Pressure (altimeter): 30.14 inches Hg (1020.7 mb)
[Sea-level pressure: 1020.4 mb]
Winds: from the NE (50 degrees) at 3 MPH (3 knots; 1.6 m/s)
Visibility: 10 or more miles (16+ km)
Ceiling: at least 12,000 feet AGL
Clouds: few clouds at 4800 feet AGL
Present Weather: no significant weather observed at this time
KTPA 212253Z 05003KT 10SM FEW048 25/12 A3014 RMK AO2 SLP204 T02500122

Conditions at: KTPA observed 21 January 2018  21:53 UTC
Temperature: 26.1°C (79°F)
Dewpoint: 12.8°C (55°F) [RH = 44%]
Pressure (altimeter): 30.13 inches Hg (1020.4 mb)
[Sea-level pressure: 1020.2 mb]
Winds: from the ENE (60 degrees) at 5 MPH (4 knots; 2.1 m/s)
Visibility: 10 or more miles (16+ km)
Ceiling: at least 12,000 feet AGL
Clouds: scattered clouds at 5000 feet AGL
Present Weather: no significant weather observed at this time
KTPA 212153Z 06004KT 10SM SCT050 26/13 A3013 RMK AO2 SLP202 T02610128

Conditions at: KTPA observed 21 January 2018  20:53 UTC
Temperature: 27.2°C (81°F)
Dewpoint: 13.3°C (56°F) [RH = 42%]
Pressure (altimeter): 30.13 inches Hg (1020.4 mb)
[Sea-level pressure: 1020.3 mb]
Winds: variable direction winds at 3 MPH (3 knots; 1.6 m/s)
Visibility: 10 or more miles (16+ km)
Ceiling: at least 12,000 feet AGL
Clouds: scattered clouds at 5000 feet AGL
Present Weather: no significant weather observed at this time
KTPA 212053Z VRB03KT 10SM SCT050 27/13 A3013 RMK AO2 SLP203 T02720133 56021

Conditions at: KTPA observed 21 January 2018  19:53 UTC
Temperature: 26.1°C (79°F)
Dewpoint: 13.3°C (56°F) [RH = 45%]
Pressure (altimeter): 30.13 inches Hg (1020.4 mb)
[Sea-level pressure: 1020.2 mb]
Winds: calm
Visibility: 10 or more miles (16+ km)
Ceiling: at least 12,000 feet AGL
Clouds: scattered clouds at 4600 feet AGL
Present Weather: no significant weather observed at this time
KTPA 211953Z 00000KT 10SM SCT046 26/13 A3013 RMK AO2 SLP202 T02610133

Conditions at: KTPA observed 21 January 2018  18:53 UTC
Temperature: 25.0°C (77°F)
Dewpoint: 13.9°C (57°F) [RH = 50%]
Pressure (altimeter): 30.16 inches Hg (1021.4 mb)
[Sea-level pressure: 1021.1 mb]
Winds: from the SE (140 degrees) at 6 MPH (5 knots; 2.6 m/s)
Visibility: 10 or more miles (16+ km)
Ceiling: at least 12,000 feet AGL
Clouds: scattered clouds at 4400 feet AGL
Present Weather: no significant weather observed at this time
KTPA 211853Z 14005KT 10SM SCT044 25/14 A3016 RMK AO2 SLP211 T02500139

Conditions at: KTPA observed 21 January 2018  17:53 UTC
Temperature: 25.0°C (77°F)
Dewpoint: 14.4°C (58°F) [RH = 52%]
Pressure (altimeter): 30.19 inches Hg (1022.4 mb)
[Sea-level pressure: 1022.3 mb]
Winds: from the SSE (160 degrees) at 9 MPH (8 knots; 4.2 m/s)
Visibility: 10 or more miles (16+ km)
Ceiling: 3600 feet AGL
Clouds: broken clouds at 3600 feet AGL
broken clouds at 16000 feet AGL
Present Weather: no significant weather observed at this time
KTPA 211753Z 16008KT 10SM BKN036 BKN160 25/14 A3019 RMK AO2 SLP223 T02500144 10250 20150 58021

Conditions at: KTPA observed 21 January 2018  16:53 UTC
Temperature: 23.9°C (75°F)
Dewpoint: 14.4°C (58°F) [RH = 55%]
Pressure (altimeter): 30.23 inches Hg (1023.8 mb)
[Sea-level pressure: 1023.5 mb]
Winds: from the ESE (110 degrees) at 6 MPH (5 knots; 2.6 m/s)
Visibility: 10 or more miles (16+ km)
Ceiling: at least 12,000 feet AGL
Clouds: few clouds at 3800 feet AGL
few clouds at 16000 feet AGL
Present Weather: no significant weather observed at this time
KTPA 211653Z 11005KT 10SM FEW038 FEW160 24/14 A3023 RMK AO2 SLP235 T02390144

Conditions at: KTPA observed 21 January 2018  15:53 UTC
Temperature: 22.8°C (73°F)
Dewpoint: 13.9°C (57°F) [RH = 57%]
Pressure (altimeter): 30.25 inches Hg (1024.5 mb)
[Sea-level pressure: 1024.4 mb]
Winds: variable direction winds at 3 MPH (3 knots; 1.6 m/s)
Visibility: 10 or more miles (16+ km)
Ceiling: 16000 feet AGL
Clouds: broken clouds at 16000 feet AGL
Present Weather: no significant weather observed at this time
KTPA 211553Z VRB03KT 10SM BKN160 23/14 A3025 RMK AO2 SLP244 T02280139

Conditions at: KTPA observed 21 January 2018  14:53 UTC
Temperature: 21.1°C (70°F)
Dewpoint: 12.8°C (55°F) [RH = 59%]
Pressure (altimeter): 30.25 inches Hg (1024.5 mb)
[Sea-level pressure: 1024.4 mb]
Winds: variable direction winds at 3 MPH (3 knots; 1.6 m/s)
Visibility: 10 or more miles (16+ km)
Ceiling: at least 12,000 feet AGL
Clouds: few clouds at 15000 feet AGL
Present Weather: no significant weather observed at this time
KTPA 211453Z VRB03KT 10SM FEW150 21/13 A3025 RMK AO2 SLP244 T02110128 53012

Conditions at: KTPA observed 21 January 2018  13:53 UTC
Temperature: 17.8°C (64°F)
Dewpoint: 12.2°C (54°F) [RH = 70%]
Pressure (altimeter): 30.24 inches Hg (1024.1 mb)
[Sea-level pressure: 1023.9 mb]
Winds: from the ENE (70 degrees) at 5 MPH (4 knots; 2.1 m/s)
Visibility: 10 or more miles (16+ km)
Ceiling: 15000 feet AGL
Clouds: broken clouds at 15000 feet AGL
Present Weather: no significant weather observed at this time
KTPA 211353Z 07004KT 10SM BKN150 18/12 A3024 RMK AO2 SLP239 T01780122

Conditions at: KTPA observed 21 January 2018  12:53 UTC
Temperature: 15.6°C (60°F)
Dewpoint: 11.1°C (52°F) [RH = 75%]
Pressure (altimeter): 30.23 inches Hg (1023.8 mb)
[Sea-level pressure: 1023.5 mb]
Winds: from the NE (50 degrees) at 5 MPH (4 knots; 2.1 m/s)
Visibility: 10 or more miles (16+ km)
Ceiling: 3900 feet AGL
Clouds: broken clouds at 3900 feet AGL
broken clouds at 30000 feet AGL
Present Weather: no significant weather observed at this time
KTPA 211253Z COR 05004KT 10SM BKN039 BKN300 16/11 A3023 RMK AO2 LTG DSNT W SLP235 T01560111

Conditions at: KTPA observed 21 January 2018  11:53 UTC
Temperature: 15.6°C (60°F)
Dewpoint: 10.6°C (51°F) [RH = 72%]
Pressure (altimeter): 30.22 inches Hg (1023.5 mb)
[Sea-level pressure: 1023.3 mb]
Winds: from the ENE (60 degrees) at 5 MPH (4 knots; 2.1 m/s)
Visibility: 10 or more miles (16+ km)
Ceiling: 3900 feet AGL
Clouds: broken clouds at 3900 feet AGL
broken clouds at 15000 feet AGL
Present Weather: no significant weather observed at this time
KTPA 211153Z 06004KT 10SM BKN039 BKN150 16/11 A3022 RMK AO2 SLP233 T01560106 10161 20150 51006

Conditions at: KTPA observed 21 January 2018  10:53 UTC
Temperature: 15.6°C (60°F)
Dewpoint: 10.6°C (51°F) [RH = 72%]
Pressure (altimeter): 30.22 inches Hg (1023.5 mb)
[Sea-level pressure: 1023.1 mb]
Winds: from the ENE (60 degrees) at 5 MPH (4 knots; 2.1 m/s)
Visibility: 10 or more miles (16+ km)
Ceiling: 15000 feet AGL
Clouds: few clouds at 2500 feet AGL
scattered clouds at 7000 feet AGL
broken clouds at 15000 feet AGL
Present Weather: no significant weather observed at this time
KTPA 211053Z 06004KT 10SM FEW025 SCT070 BKN150 16/11 A3022 RMK AO2 SLP231 T01560106

Conditions at: KTPA observed 21 January 2018  09:53 UTC
Temperature: 15.6°C (60°F)
Dewpoint: 10.6°C (51°F) [RH = 72%]
Pressure (altimeter): 30.21 inches Hg (1023.1 mb)
[Sea-level pressure: 1022.9 mb]
Winds: from the ENE (60 degrees) at 3 MPH (3 knots; 1.6 m/s)
Visibility: 10 or more miles (16+ km)
Ceiling: 15000 feet AGL
Clouds: scattered clouds at 4000 feet AGL
broken clouds at 15000 feet AGL
Present Weather: no significant weather observed at this time
KTPA 210953Z 06003KT 10SM SCT040 BKN150 16/11 A3021 RMK AO2 SLP229 T01560106

Conditions at: KTPA observed 21 January 2018  08:53 UTC
Temperature: 15.6°C (60°F)
Dewpoint: 10.6°C (51°F) [RH = 72%]
Pressure (altimeter): 30.20 inches Hg (1022.8 mb)
[Sea-level pressure: 1022.6 mb]
Winds: from the ENE (60 degrees) at 3 MPH (3 knots; 1.6 m/s)
Visibility: 10 or more miles (16+ km)
Ceiling: 15000 feet AGL
Clouds: few clouds at 4000 feet AGL
broken clouds at 15000 feet AGL
Present Weather: no significant weather observed at this time
KTPA 210853Z 06003KT 10SM FEW040 BKN150 16/11 A3020 RMK AO2 SLP226 T01560106 58011

Conditions at: KTPA observed 21 January 2018  07:53 UTC
Temperature: 16.1°C (61°F)
Dewpoint: 10.6°C (51°F) [RH = 70%]
Pressure (altimeter): 30.22 inches Hg (1023.5 mb)
[Sea-level pressure: 1023.2 mb]
Winds: from the NE (50 degrees) at 3 MPH (3 knots; 1.6 m/s)
Visibility: 10 or more miles (16+ km)
Ceiling: 3800 feet AGL
Clouds: broken clouds at 3800 feet AGL
overcast cloud deck at 15000 feet AGL
Present Weather: no significant weather observed at this time
KTPA 210753Z 05003KT 10SM BKN038 OVC150 16/11 A3022 RMK AO2 SLP232 T01610106

Conditions at: KTPA observed 21 January 2018  06:53 UTC
Temperature: 16.1°C (61°F)
Dewpoint: 10.0°C (50°F) [RH = 67%]
Pressure (altimeter): 30.22 inches Hg (1023.5 mb)
[Sea-level pressure: 1023.4 mb]
Winds: from the NE (40 degrees) at 5 MPH (4 knots; 2.1 m/s)
Visibility: 10 or more miles (16+ km)
Ceiling: 13000 feet AGL
Clouds: scattered clouds at 3600 feet AGL
broken clouds at 13000 feet AGL
overcast cloud deck at 18000 feet AGL
Present Weather: no significant weather observed at this time
KTPA 210653Z 04004KT 10SM SCT036 BKN130 OVC180 16/10 A3022 RMK AO2 SLP234 T01610100

Conditions at: KTPA observed 21 January 2018  05:53 UTC
Temperature: 16.1°C (61°F)
Dewpoint: 10.0°C (50°F) [RH = 67%]
Pressure (altimeter): 30.23 inches Hg (1023.8 mb)
[Sea-level pressure: 1023.8 mb]
Winds: from the NNE (20 degrees) at 8 MPH (7 knots; 3.6 m/s)
Visibility: 10 or more miles (16+ km)
Ceiling: 14000 feet AGL
Clouds: few clouds at 8000 feet AGL
broken clouds at 14000 feet AGL
overcast cloud deck at 19000 feet AGL
Present Weather: no significant weather observed at this time
KTPA 210553Z 02007KT 10SM FEW080 BKN140 OVC190 16/10 A3023 RMK AO2 SLP238 T01610100 10183 20161 56017

Conditions at: KTPA observed 21 January 2018  04:53 UTC
Temperature: 16.7°C (62°F)
Dewpoint: 10.0°C (50°F) [RH = 65%]
Pressure (altimeter): 30.26 inches Hg (1024.8 mb)
[Sea-level pressure: 1024.5 mb]
Winds: calm
Visibility: 10 or more miles (16+ km)
Ceiling: 14000 feet AGL
Clouds: few clouds at 8000 feet AGL
broken clouds at 14000 feet AGL
overcast cloud deck at 19000 feet AGL
Present Weather: no significant weather observed at this time
KTPA 210453Z 00000KT 10SM FEW080 BKN140 OVC190 17/10 A3026 RMK AO2 SLP245 T01670100 402110083

Conditions at: KTPA observed 21 January 2018  03:53 UTC
Temperature: 16.7°C (62°F)
Dewpoint: 10.0°C (50°F) [RH = 65%]
Pressure (altimeter): 30.24 inches Hg (1024.1 mb)
[Sea-level pressure: 1023.9 mb]
Winds: from the NNE (30 degrees) at 6 MPH (5 knots; 2.6 m/s)
Visibility: 10 or more miles (16+ km)
Ceiling: 17000 feet AGL
Clouds: overcast cloud deck at 17000 feet AGL
Present Weather: no significant weather observed at this time
KTPA 210353Z 03005KT 10SM OVC170 17/10 A3024 RMK AO2 SLP239 T01670100